Hennessey, Oklahoma
Current Conditions -  °F | °C
As of 8:10 AM on Friday 19 Dec 2014 (Local Time) from KEND Reporting Station
Overcast Overcast  
Wind Chill: 30°   Ceiling: 600
Heat Index: 34°   Visibility: 7mi
Dew Point: 32°   Wind: 5mph
Humidity: 93%   Direction: 50°NE
Pressure: 30.23"   Gusts: NA
Location:  36.11°N, 97.9°W
Report Text: KEND 191410Z 05004KT 7SM OVC006 01/00 A3023 RMK AO2A SLP249
Loading
Personal Weather Stations






























Interactive Weather Map New forecast layout! Learn more

10-Day Weather Forecast

Advertisements
Track Severe Weather on mobile